Time;durP1;ratioP1;P1;durP2;ratioP2;P2;SDS_P1;SDS_P2;PMS_P1;PMS_P2;Temp;Humidity;BMP_temperature;BMP_pressure;BME280_temperature;BME280_humidity;BME280_pressure;Samples;Min_cycle;Max_cycle;Signal;HPM_P1;HPM_P2
2023/12/14 00:00:07;;;;;;;1.73;1.30;;;;;;;5.12;100.00;100887.91;6199090;28;20233;-72
2023/12/14 00:03:28;;;;;;;1.93;1.53;;;;;;;5.11;100.00;100893.38;6197041;28;20245;-72
2023/12/14 00:06:49;;;;;;;2.90;1.70;;;;;;;5.12;100.00;100889.72;6180642;28;20229;-72
2023/12/14 00:10:12;;;;;;;1.30;1.20;;;;;;;5.22;100.00;100904.19;6196951;28;22005;-72
2023/12/14 00:13:34;;;;;;;2.53;2.30;;;;;;;5.19;100.00;100913.28;6198425;28;20598;-72
2023/12/14 00:16:56;;;;;;;3.80;1.20;;;;;;;5.19;100.00;100913.28;6199996;28;20270;-71
2023/12/14 00:20:17;;;;;;;1.50;1.40;;;;;;;5.23;100.00;100917.47;6194734;28;20233;-72
2023/12/14 00:23:38;;;;;;;1.80;1.53;;;;;;;5.25;100.00;100925.38;6197823;28;20229;-72
2023/12/14 00:26:59;;;;;;;1.60;1.40;;;;;;;5.21;100.00;100923.84;6198304;28;20260;-72
2023/12/14 00:30:22;;;;;;;3.00;2.70;;;;;;;5.28;100.00;100931.34;6188145;28;20677;-73
2023/12/14 00:33:44;;;;;;;3.20;1.97;;;;;;;5.37;100.00;100929.88;6197740;28;20234;-73
2023/12/14 00:37:05;;;;;;;2.13;1.93;;;;;;;5.34;100.00;100941.63;6198897;28;20308;-73
2023/12/14 00:40:26;;;;;;;1.67;1.57;;;;;;;5.32;100.00;100943.56;6196595;28;21385;-73
2023/12/14 00:43:47;;;;;;;2.90;1.43;;;;;;;5.28;100.00;100957.22;6195546;28;20256;-72
2023/12/14 00:47:09;;;;;;;2.63;1.63;;;;;;;5.27;100.00;100964.41;6192944;28;20555;-72
2023/12/14 00:50:30;;;;;;;3.83;1.97;;;;;;;5.34;100.00;100971.03;6198125;28;20623;-72
2023/12/14 00:53:51;;;;;;;1.27;1.17;;;;;;;5.27;100.00;100977.75;6194956;28;22353;-73
2023/12/14 00:57:12;;;;;;;1.40;1.30;;;;;;;5.31;100.00;100989.97;6196081;28;20236;-73
2023/12/14 01:00:33;;;;;;;2.90;1.63;;;;;;;5.30;100.00;100984.72;6193753;28;20221;-73
2023/12/14 01:03:56;;;;;;;2.40;2.17;;;;;;;5.32;100.00;100985.47;6197543;28;20233;-72
2023/12/14 01:07:17;;;;;;;1.80;1.60;;;;;;;5.33;100.00;100982.69;6196051;28;20328;-72
2023/12/14 01:10:38;;;;;;;1.20;1.20;;;;;;;5.36;100.00;100995.84;6195030;28;20232;-73
2023/12/14 01:13:59;;;;;;;1.40;1.30;;;;;;;5.38;100.00;100988.59;6198602;28;20260;-73
2023/12/14 01:17:20;;;;;;;1.00;0.90;;;;;;;5.39;100.00;100998.34;6198302;28;20538;-73
2023/12/14 01:20:42;;;;;;;1.40;1.23;;;;;;;5.43;100.00;101007.00;6196284;28;20591;-72
2023/12/14 01:24:04;;;;;;;3.27;2.07;;;;;;;5.46;100.00;101012.16;6197146;28;20233;-72
2023/12/14 01:27:24;;;;;;;1.30;1.20;;;;;;;5.43;100.00;101015.03;6198521;28;21137;-74
2023/12/14 01:30:45;;;;;;;2.20;1.97;;;;;;;5.38;100.00;101017.16;6200907;28;20237;-73
2023/12/14 01:34:06;;;;;;;1.50;1.40;;;;;;;5.41;100.00;101027.63;6196877;28;20233;-73
2023/12/14 01:37:28;;;;;;;2.50;1.77;;;;;;;5.42;100.00;101032.03;6199490;28;20236;-73
2023/12/14 01:40:49;;;;;;;3.20;1.87;;;;;;;5.43;100.00;101037.28;6199449;28;20233;-73
2023/12/14 01:44:11;;;;;;;2.10;1.30;;;;;;;5.44;100.00;101039.00;6202048;28;20229;-73
2023/12/14 01:47:32;;;;;;;3.33;1.67;;;;;;;5.48;100.00;101043.19;6198660;28;20237;-73
2023/12/14 01:50:53;;;;;;;2.40;1.97;;;;;;;5.48;100.00;101050.34;6200283;28;20324;-73
2023/12/14 01:54:15;;;;;;;2.03;1.77;;;;;;;5.51;100.00;101050.13;6198293;28;20237;-73
2023/12/14 01:57:36;;;;;;;1.60;1.40;;;;;;;5.47;100.00;101053.97;6195860;28;20237;-73
2023/12/14 02:01:04;;;;;;;3.07;2.77;;;;;;;5.36;100.00;101051.16;6184766;28;20233;-73
2023/12/14 02:04:26;;;;;;;2.90;1.20;;;;;;;5.47;100.00;101057.50;6201390;28;20232;-73
2023/12/14 02:07:47;;;;;;;2.77;1.93;;;;;;;5.47;100.00;101048.59;6199764;28;20233;-73
2023/12/14 02:11:10;;;;;;;1.30;1.30;;;;;;;5.40;100.00;101061.50;6198041;28;20245;-73
2023/12/14 02:14:31;;;;;;;0.80;0.80;;;;;;;5.38;100.00;101054.56;6201134;28;20229;-72
2023/12/14 02:17:52;;;;;;;2.43;1.50;;;;;;;5.43;100.00;101066.69;6192181;28;20233;-72
2023/12/14 02:21:13;;;;;;;2.13;1.23;;;;;;;5.36;100.00;101070.69;6201486;28;20237;-72
2023/12/14 02:24:35;;;;;;;2.73;1.53;;;;;;;5.42;100.00;101069.47;6201420;28;20233;-73
2023/12/14 02:27:56;;;;;;;1.97;1.63;;;;;;;5.51;100.00;101067.03;6199536;28;20226;-73
2023/12/14 02:31:18;;;;;;;3.90;1.10;;;;;;;5.57;100.00;101074.66;6196251;28;20237;-73
2023/12/14 02:34:39;;;;;;;1.90;1.77;;;;;;;5.48;100.00;101072.59;6198759;28;20237;-73
2023/12/14 02:38:00;;;;;;;3.03;1.60;;;;;;;5.50;100.00;101080.50;6195364;28;20250;-73
2023/12/14 02:41:22;;;;;;;2.87;2.37;;;;;;;5.55;100.00;101075.69;6194487;28;20656;-73
2023/12/14 02:44:43;;;;;;;1.97;1.13;;;;;;;5.49;100.00;101081.44;6198275;28;21435;-72
2023/12/14 02:48:05;;;;;;;2.23;1.93;;;;;;;5.58;100.00;101086.22;6179801;28;20245;-72
2023/12/14 02:51:26;;;;;;;1.73;1.63;;;;;;;5.58;100.00;101088.88;6195037;28;20320;-72
2023/12/14 02:54:47;;;;;;;2.30;1.37;;;;;;;5.48;100.00;101093.97;6196604;28;20252;-73
2023/12/14 02:58:09;;;;;;;3.47;1.90;;;;;;;5.50;100.00;101093.88;6194300;28;20254;-73
2023/12/14 03:01:30;;;;;;;3.17;2.27;;;;;;;5.47;100.00;101100.28;6196525;28;20233;-72
2023/12/14 03:04:51;;;;;;;1.67;1.57;;;;;;;5.50;100.00;101110.78;6195049;28;20517;-73
2023/12/14 03:08:12;;;;;;;2.43;1.30;;;;;;;5.43;100.00;101114.78;6196228;28;20229;-73
2023/12/14 03:11:33;;;;;;;1.00;1.00;;;;;;;5.44;100.00;101118.34;6180356;28;20265;-73
2023/12/14 03:14:55;;;;;;;0.83;0.80;;;;;;;5.46;100.00;101119.97;6195145;28;20232;-72
2023/12/14 03:18:16;;;;;;;1.90;1.80;;;;;;;5.39;100.00;101136.47;6195651;28;20241;-73
2023/12/14 03:21:37;;;;;;;2.37;1.80;;;;;;;5.34;100.00;101128.72;6193908;28;20233;-73
2023/12/14 03:24:58;;;;;;;1.80;1.30;;;;;;;5.39;100.00;101128.44;6195607;28;20974;-73
2023/12/14 03:28:19;;;;;;;1.37;1.27;;;;;;;5.40;100.00;101143.53;6194329;28;20237;-73
2023/12/14 03:31:41;;;;;;;1.30;1.20;;;;;;;5.31;100.00;101144.97;6193033;28;20266;-73
2023/12/14 03:35:02;;;;;;;1.70;1.60;;;;;;;5.34;100.00;101146.59;6195886;28;20312;-73
2023/12/14 03:38:23;;;;;;;2.53;1.63;;;;;;;5.34;100.00;101150.13;6194534;28;20233;-73
2023/12/14 03:41:44;;;;;;;2.07;1.60;;;;;;;5.45;100.00;101154.78;6192970;28;20233;-72
2023/12/14 03:45:06;;;;;;;3.23;1.40;;;;;;;5.45;100.00;101163.66;6202245;28;20228;-73
2023/12/14 03:48:28;;;;;;;1.57;1.47;;;;;;;5.32;100.00;101164.56;6196090;28;20229;-73
2023/12/14 03:51:50;;;;;;;1.37;1.27;;;;;;;5.26;100.00;101163.09;6196981;28;20240;-73
2023/12/14 03:55:10;;;;;;;1.43;1.33;;;;;;;5.29;100.00;101165.59;6196200;28;21318;-73
2023/12/14 03:58:31;;;;;;;1.57;1.47;;;;;;;5.34;100.00;101170.66;6182432;28;20700;-72
2023/12/14 04:01:52;;;;;;;2.07;1.90;;;;;;;5.34;100.00;101174.16;6197106;28;20324;-72
2023/12/14 04:05:15;;;;;;;2.60;1.83;;;;;;;5.33;100.00;101177.81;6197864;28;20236;-73
2023/12/14 04:08:36;;;;;;;1.87;1.77;;;;;;;5.31;100.00;101181.53;6198056;28;20229;-72
2023/12/14 04:11:56;;;;;;;2.67;2.13;;;;;;;5.32;100.00;101188.59;6197612;28;20233;-73
2023/12/14 04:15:18;;;;;;;1.90;1.70;;;;;;;5.32;100.00;101193.94;6203411;28;20233;-72
2023/12/14 04:18:39;;;;;;;1.50;1.40;;;;;;;5.37;100.00;101194.50;6189647;28;20323;-73
2023/12/14 04:22:02;;;;;;;3.47;1.90;;;;;;;5.36;100.00;101203.50;6194535;28;20252;-72
2023/12/14 04:25:23;;;;;;;2.00;1.70;;;;;;;5.32;100.00;101196.63;6198021;28;20236;-72
2023/12/14 04:28:45;;;;;;;2.00;1.80;;;;;;;5.42;100.00;101189.75;6196669;28;20824;-72
2023/12/14 04:32:07;;;;;;;1.50;1.40;;;;;;;5.39;100.00;101204.16;6196565;28;20245;-73
2023/12/14 04:35:27;;;;;;;2.57;2.10;;;;;;;5.38;100.00;101201.59;6198774;28;21012;-73
2023/12/14 04:38:50;;;;;;;4.90;2.23;;;;;;;5.43;100.00;101203.00;6198396;28;20321;-73
2023/12/14 04:42:10;;;;;;;1.30;1.13;;;;;;;5.43;100.00;101213.69;6197003;28;20431;-73
2023/12/14 04:45:31;;;;;;;1.40;1.30;;;;;;;5.48;100.00;101214.28;6196892;28;20229;-72
2023/12/14 04:48:52;;;;;;;1.50;1.40;;;;;;;5.47;100.00;101220.56;6203120;28;20232;-72
2023/12/14 04:52:13;;;;;;;1.67;1.50;;;;;;;5.47;100.00;101225.91;6195966;28;20516;-73
2023/12/14 04:55:36;;;;;;;3.17;1.93;;;;;;;5.52;100.00;101231.84;6196064;28;20238;-73
2023/12/14 04:58:57;;;;;;;2.40;1.50;;;;;;;5.65;100.00;101240.81;6196821;28;20229;-72
2023/12/14 05:02:17;;;;;;;3.53;2.97;;;;;;;5.66;100.00;101249.69;6193060;28;20233;-72
2023/12/14 05:05:38;;;;;;;2.73;1.43;;;;;;;5.57;100.00;101244.91;6197677;28;20327;-73
2023/12/14 05:09:01;;;;;;;6.83;2.60;;;;;;;5.55;100.00;101257.53;6196206;28;20507;-73
2023/12/14 05:12:25;;;;;;;2.53;2.30;;;;;;;5.52;100.00;101249.72;6198360;28;21671;-73
2023/12/14 05:15:45;;;;;;;2.90;2.53;;;;;;;5.56;100.00;101245.88;6173263;28;20236;-73
2023/12/14 05:19:06;;;;;;;3.67;2.60;;;;;;;5.50;100.00;101256.97;6174225;28;20233;-73
2023/12/14 05:22:27;;;;;;;3.13;1.87;;;;;;;5.54;100.00;101264.72;6202387;28;20233;-72
2023/12/14 05:25:48;;;;;;;2.50;1.77;;;;;;;5.56;100.00;101267.28;6191762;28;23138;-71
2023/12/14 05:29:10;;;;;;;3.33;2.90;;;;;;;5.58;100.00;101274.25;6187021;28;20236;-72
2023/12/14 05:32:31;;;;;;;5.50;3.17;;;;;;;5.55;100.00;101286.94;6202831;28;20240;-73
2023/12/14 05:35:52;;;;;;;5.13;2.13;;;;;;;5.67;100.00;101299.56;6202516;28;20225;-72
2023/12/14 05:39:13;;;;;;;2.83;2.63;;;;;;;5.71;100.00;101295.75;6201617;28;20692;-73
2023/12/14 05:42:34;;;;;;;2.73;2.53;;;;;;;5.65;100.00;101305.00;6200329;28;20229;-72
2023/12/14 05:45:56;;;;;;;3.97;3.63;;;;;;;5.64;100.00;101305.09;6198262;28;20233;-72
2023/12/14 05:49:17;;;;;;;2.30;2.10;;;;;;;5.69;100.00;101308.34;6197801;28;20662;-72
2023/12/14 05:52:38;;;;;;;2.70;2.50;;;;;;;5.76;100.00;101320.38;6198177;28;20240;-73
2023/12/14 05:55:59;;;;;;;2.63;2.30;;;;;;;5.71;100.00;101329.66;6197243;28;20237;-73
2023/12/14 05:59:20;;;;;;;5.07;2.10;;;;;;;5.68;100.00;101338.72;6197893;28;20233;-73
2023/12/14 06:02:42;;;;;;;3.47;2.07;;;;;;;5.65;100.00;101336.25;6191025;28;20738;-73
2023/12/14 06:06:04;;;;;;;3.77;2.33;;;;;;;5.62;100.00;101337.28;6195734;28;22802;-72
2023/12/14 06:09:32;;;;;;;2.70;2.07;;;;;;;5.54;100.00;101333.34;6195584;28;20327;-73
2023/12/14 06:12:52;;;;;;;4.63;2.67;;;;;;;5.60;100.00;101339.19;6196332;28;20247;-73
2023/12/14 06:16:13;;;;;;;3.27;2.17;;;;;;;5.61;100.00;101343.56;6197179;28;20229;-73
2023/12/14 06:19:35;;;;;;;4.93;4.43;;;;;;;5.66;100.00;101346.84;6197538;28;20240;-73
2023/12/14 06:22:56;;;;;;;5.77;5.17;;;;;;;5.66;100.00;101354.00;6197749;28;20804;-73
2023/12/14 06:26:17;;;;;;;9.60;3.40;;;;;;;5.69;100.00;101353.81;6198383;28;20237;-73
2023/12/14 06:29:38;;;;;;;3.23;2.77;;;;;;;5.68;100.00;101354.75;6201101;28;20241;-71
2023/12/14 06:32:59;;;;;;;2.70;2.17;;;;;;;5.65;100.00;101352.28;6197490;28;20245;-73
2023/12/14 06:36:21;;;;;;;3.23;2.60;;;;;;;5.55;100.00;101373.38;6200099;28;20233;-70
2023/12/14 06:39:42;;;;;;;4.73;2.50;;;;;;;5.56;100.00;101379.59;6200572;28;20240;-72
2023/12/14 06:43:04;;;;;;;3.50;3.20;;;;;;;5.66;100.00;101391.44;6193534;28;20233;-72
2023/12/14 06:46:25;;;;;;;2.87;2.67;;;;;;;5.65;100.00;101395.09;6193861;28;20225;-74
2023/12/14 06:49:46;;;;;;;2.43;2.23;;;;;;;5.63;100.00;101397.81;6191160;28;20317;-75
2023/12/14 06:53:08;;;;;;;4.97;3.87;;;;;;;5.64;100.00;101406.72;6192211;28;20237;-74
2023/12/14 06:56:29;;;;;;;6.37;5.77;;;;;;;5.75;100.00;101409.63;6199757;28;20244;-71
2023/12/14 06:59:50;;;;;;;9.07;7.50;;;;;;;5.69;100.00;101408.16;6200607;28;20233;-75
2023/12/14 07:03:11;;;;;;;3.87;3.40;;;;;;;5.71;100.00;101415.25;6183494;28;20233;-73
2023/12/14 07:06:34;;;;;;;4.17;3.50;;;;;;;5.66;100.00;101416.38;6195887;28;20229;-73
2023/12/14 07:09:57;;;;;;;3.30;2.60;;;;;;;5.63;100.00;101410.38;6191852;28;20225;-76
2023/12/14 07:13:18;;;;;;;8.10;2.73;;;;;;;5.66;100.00;101413.69;6185410;28;20233;-76
2023/12/14 07:16:39;;;;;;;6.83;3.93;;;;;;;5.64;100.00;101417.41;6196106;28;20618;-74
2023/12/14 07:19:59;;;;;;;3.40;2.50;;;;;;;5.58;100.00;101426.66;6195165;28;20613;-74
2023/12/14 07:23:20;;;;;;;3.50;2.73;;;;;;;5.67;100.00;101428.78;6198418;28;20233;-73
2023/12/14 07:26:43;;;;;;;2.87;2.67;;;;;;;5.62;100.00;101440.72;6197652;28;20244;-75
2023/12/14 07:30:05;;;;;;;4.10;2.73;;;;;;;5.55;100.00;101450.03;6199503;28;20324;-73
2023/12/14 07:33:25;;;;;;;3.83;3.50;;;;;;;5.42;100.00;101465.94;6196968;28;20237;-74
2023/12/14 07:36:47;;;;;;;3.20;2.90;;;;;;;5.43;100.00;101475.69;6195538;28;20225;-74
2023/12/14 07:40:09;;;;;;;2.50;2.30;;;;;;;5.48;100.00;101481.66;6195333;28;20237;-75
2023/12/14 07:43:31;;;;;;;3.37;3.07;;;;;;;5.52;100.00;101493.03;6176060;28;20399;-74
2023/12/14 07:46:52;;;;;;;3.70;3.00;;;;;;;5.46;100.00;101490.69;6196554;28;20245;-72
2023/12/14 07:50:13;;;;;;;4.57;2.70;;;;;;;5.41;100.00;101490.97;6199426;28;20264;-73
2023/12/14 07:53:34;;;;;;;4.30;3.20;;;;;;;5.47;100.00;101498.63;6199944;28;20245;-74
2023/12/14 07:56:55;;;;;;;4.63;3.63;;;;;;;5.49;100.00;101502.06;6195484;28;20237;-71
2023/12/14 08:00:18;;;;;;;9.63;8.00;;;;;;;5.67;100.00;101514.38;6195243;28;20320;-72
2023/12/14 08:03:39;;;;;;;5.63;3.33;;;;;;;5.54;100.00;101509.84;6190883;28;20237;-74
2023/12/14 08:07:00;;;;;;;4.00;3.07;;;;;;;5.50;100.00;101521.66;6193245;28;20245;-74
2023/12/14 08:10:21;;;;;;;4.23;3.87;;;;;;;5.44;100.00;101519.34;6196594;28;20233;-74
2023/12/14 08:13:42;;;;;;;2.80;2.53;;;;;;;5.46;100.00;101526.31;6198465;28;20252;-75
2023/12/14 08:17:05;;;;;;;2.87;2.63;;;;;;;5.58;100.00;101539.00;6198981;28;20233;-75
2023/12/14 08:20:26;;;;;;;5.53;3.60;;;;;;;5.56;100.00;101538.22;6194282;28;20241;-72
2023/12/14 08:23:47;;;;;;;3.97;2.83;;;;;;;5.51;100.00;101537.59;6191821;28;20229;-74
2023/12/14 08:27:08;;;;;;;3.70;3.40;;;;;;;5.52;100.00;101549.16;6199401;28;20233;-74
2023/12/14 08:30:29;;;;;;;3.60;3.23;;;;;;;5.47;100.00;101561.94;6197225;28;20448;-74
2023/12/14 08:33:52;;;;;;;4.70;2.67;;;;;;;5.46;100.00;101560.22;6201161;28;20253;-74
2023/12/14 08:37:13;;;;;;;5.00;4.47;;;;;;;5.57;100.00;101568.47;6200847;28;20668;-74
2023/12/14 08:40:34;;;;;;;4.53;4.10;;;;;;;5.61;100.00;101568.22;6199983;28;20233;-73
2023/12/14 08:43:55;;;;;;;2.77;2.47;;;;;;;5.61;100.00;101572.72;6200776;28;20281;-74
2023/12/14 08:47:16;;;;;;;2.53;2.27;;;;;;;6.38;100.00;101576.19;6178775;28;20603;-72
2023/12/14 08:50:38;;;;;;;3.73;2.33;;;;;;;7.30;100.00;101581.13;6198147;28;20237;-72
2023/12/14 08:53:59;;;;;;;4.33;2.67;;;;;;;7.42;100.00;101591.03;6202795;28;20343;-73
2023/12/14 08:57:21;;;;;;;5.37;3.77;;;;;;;7.52;100.00;101589.50;6207176;28;20626;-76
2023/12/14 09:00:42;;;;;;;3.43;2.80;;;;;;;7.32;100.00;101599.78;6203388;28;20233;-74
2023/12/14 09:04:03;;;;;;;3.17;2.87;;;;;;;7.32;100.00;101599.78;6205028;28;20233;-74
2023/12/14 09:07:25;;;;;;;4.00;2.80;;;;;;;7.42;100.00;101603.59;6198917;28;20611;-73
2023/12/14 09:10:46;;;;;;;3.70;2.47;;;;;;;7.42;100.00;101611.63;6200047;28;20772;-75
2023/12/14 09:14:07;;;;;;;4.33;2.27;;;;;;;7.38;100.00;101604.75;6200351;28;20312;-74
2023/12/14 09:17:32;;;;;;;4.83;2.33;;;;;;;7.69;100.00;101608.03;6186599;28;20237;-73
2023/12/14 09:20:53;;;;;;;2.90;2.27;;;;;;;7.50;100.00;101604.81;6207605;28;20965;-72
2023/12/14 09:24:15;;;;;;;2.50;2.30;;;;;;;7.33;100.00;101614.88;6184157;28;20248;-73
2023/12/14 09:27:36;;;;;;;2.77;2.10;;;;;;;7.19;100.00;101622.00;6202312;28;20253;-75
2023/12/14 09:30:57;;;;;;;2.90;2.60;;;;;;;7.13;100.00;101637.63;6202697;28;20614;-71
2023/12/14 09:34:18;;;;;;;4.40;3.30;;;;;;;7.15;100.00;101646.44;6203675;28;20233;-73
2023/12/14 09:37:41;;;;;;;3.57;2.23;;;;;;;6.89;100.00;101649.84;6205848;28;20496;-74
2023/12/14 09:41:04;;;;;;;3.20;2.90;;;;;;;7.17;100.00;101644.50;6205316;28;20237;-73
2023/12/14 09:44:25;;;;;;;2.50;2.30;;;;;;;7.41;100.00;101639.41;6201750;28;20233;-74
2023/12/14 09:47:47;;;;;;;5.07;2.90;;;;;;;7.28;100.00;101644.69;6188672;28;20238;-73
2023/12/14 09:51:08;;;;;;;2.67;2.13;;;;;;;7.32;100.00;101648.06;6201542;28;20507;-75
2023/12/14 09:54:30;;;;;;;3.23;2.83;;;;;;;7.47;100.00;101639.03;6201498;28;20233;-74
2023/12/14 09:57:52;;;;;;;4.27;2.10;;;;;;;7.50;100.00;101647.75;6202859;28;20233;-74
2023/12/14 10:01:24;;;;;;;2.47;2.27;;;;;;;7.53;100.00;101647.53;6205654;28;20229;-73
2023/12/14 10:04:44;;;;;;;4.23;2.83;;;;;;;7.74;100.00;101651.53;6184887;28;20233;-76
2023/12/14 10:08:06;;;;;;;3.37;3.07;;;;;;;7.72;100.00;101647.22;6201564;28;20330;-72
2023/12/14 10:11:27;;;;;;;3.27;3.03;;;;;;;7.67;100.00;101650.22;6204469;28;20229;-71
2023/12/14 10:15:01;;;;;;;2.43;2.27;;;;;;;7.69;100.00;101667.06;6204831;28;20237;-73
2023/12/14 10:18:24;;;;;;;4.67;2.70;;;;;;;7.72;100.00;101669.53;6192616;28;20232;-73
2023/12/14 10:21:46;;;;;;;3.87;2.67;;;;;;;7.39;100.00;101671.69;6201687;28;20233;-73
2023/12/14 10:25:09;;;;;;;2.70;2.43;;;;;;;7.69;100.00;101677.81;6198059;28;20634;-74
2023/12/14 10:28:30;;;;;;;7.23;3.07;;;;;;;7.53;100.00;101682.41;6199365;28;20237;-74
2023/12/14 10:31:53;;;;;;;2.67;2.47;;;;;;;7.83;100.00;101690.31;6193760;28;20615;-73
2023/12/14 10:35:16;;;;;;;3.37;3.07;;;;;;;8.01;100.00;101692.69;6204556;28;20233;-73
2023/12/14 10:38:38;;;;;;;3.50;3.20;;;;;;;8.09;100.00;101702.94;6203477;28;20241;-73
2023/12/14 10:42:03;;;;;;;6.40;3.10;;;;;;;8.08;100.00;101706.56;6197784;28;20888;-72
2023/12/14 10:45:27;;;;;;;5.40;2.83;;;;;;;7.96;100.00;101713.63;6190165;28;20230;-72
2023/12/14 10:48:51;;;;;;;2.87;2.43;;;;;;;8.03;100.00;101714.09;6202828;28;20264;-74
2023/12/14 10:52:13;;;;;;;4.80;2.83;;;;;;;8.03;100.00;101727.50;6199900;28;20244;-77
2023/12/14 10:55:39;;;;;;;2.47;2.17;;;;;;;7.68;100.00;101727.06;6199967;28;20237;-75
2023/12/14 10:59:00;;;;;;;3.10;2.80;;;;;;;7.14;100.00;101733.16;6202672;28;20234;-74
2023/12/14 11:02:20;;;;;;;3.40;3.10;;;;;;;6.98;100.00;101741.28;6202855;28;20229;-73
2023/12/14 11:05:42;;;;;;;2.20;2.00;;;;;;;6.84;100.00;101746.59;6194528;28;20240;-73
2023/12/14 11:09:06;;;;;;;3.63;3.33;;;;;;;6.79;100.00;101751.38;6201660;28;20229;-74
2023/12/14 11:12:28;;;;;;;2.17;2.07;;;;;;;6.72;100.00;101757.16;6195629;28;20249;-74
2023/12/14 11:15:51;;;;;;;2.97;2.20;;;;;;;6.73;100.00;101758.91;6164336;28;20283;-73
2023/12/14 11:19:25;;;;;;;2.93;2.47;;;;;;;6.70;100.00;101753.72;6196553;28;20328;-76
2023/12/14 11:22:48;;;;;;;5.07;3.03;;;;;;;6.67;100.00;101769.97;6196223;28;20236;-76
2023/12/14 11:26:11;;;;;;;5.43;3.07;;;;;;;6.70;100.00;101773.34;6191966;28;20237;-73
2023/12/14 11:29:32;;;;;;;4.80;3.13;;;;;;;6.63;100.00;101763.06;6195548;28;20237;-70
2023/12/14 11:32:54;;;;;;;5.03;3.63;;;;;;;6.74;100.00;101779.41;6192570;28;20237;-74
2023/12/14 11:36:15;;;;;;;3.43;3.13;;;;;;;6.67;100.00;101775.34;6197599;28;20618;-75
2023/12/14 11:39:38;;;;;;;5.07;4.23;;;;;;;6.74;100.00;101780.22;6192980;28;20241;-74
2023/12/14 11:42:59;;;;;;;3.10;2.30;;;;;;;6.68;100.00;101782.41;6199891;28;20229;-73
2023/12/14 11:46:20;;;;;;;3.07;2.87;;;;;;;6.63;100.00;101789.88;6200940;28;20237;-75
2023/12/14 11:49:41;;;;;;;3.00;2.80;;;;;;;6.70;100.00;101796.56;6196085;28;20243;-75
2023/12/14 11:53:03;;;;;;;3.23;2.93;;;;;;;6.69;100.00;101801.09;6196565;28;20230;-74
2023/12/14 11:56:25;;;;;;;5.53;4.30;;;;;;;6.81;100.00;101791.47;6199353;28;20634;-76
2023/12/14 11:59:46;;;;;;;6.87;5.77;;;;;;;6.85;100.00;101796.56;6186256;28;20229;-73
2023/12/14 12:03:08;;;;;;;11.60;10.23;;;;;;;7.03;100.00;101800.81;6200727;28;20316;-75
2023/12/14 12:06:30;;;;;;;8.60;4.40;;;;;;;6.86;100.00;101800.13;6183180;28;20228;-76
2023/12/14 12:09:51;;;;;;;4.13;3.77;;;;;;;6.84;100.00;101807.38;6194997;28;20225;-72
2023/12/14 12:13:16;;;;;;;3.57;3.27;;;;;;;6.78;100.00;101797.84;6188992;28;20513;-74
2023/12/14 12:16:37;;;;;;;4.60;2.70;;;;;;;6.86;100.00;101800.94;6199184;28;20245;-74
2023/12/14 12:19:58;;;;;;;3.13;2.83;;;;;;;6.79;100.00;101799.59;6203363;28;20233;-74
2023/12/14 12:23:19;;;;;;;3.67;3.37;;;;;;;6.74;100.00;101808.88;6201431;28;20232;-73
2023/12/14 12:26:40;;;;;;;5.07;2.47;;;;;;;6.65;100.00;101806.72;6200840;28;20290;-73
2023/12/14 12:30:03;;;;;;;3.83;3.23;;;;;;;6.76;100.00;101815.00;6192252;28;20631;-74
2023/12/14 12:33:25;;;;;;;3.37;3.13;;;;;;;6.81;100.00;101810.22;6197118;28;20249;-74
2023/12/14 12:36:46;;;;;;;6.80;4.27;;;;;;;6.77;100.00;101814.03;6200216;28;20233;-74
2023/12/14 12:40:08;;;;;;;3.80;2.83;;;;;;;6.78;100.00;101818.47;6198980;28;20257;-73
2023/12/14 12:43:29;;;;;;;4.50;4.03;;;;;;;6.71;100.00;101819.75;6194330;28;20517;-73
2023/12/14 12:46:55;;;;;;;2.93;2.63;;;;;;;6.37;100.00;101826.16;6193750;28;20254;-73
2023/12/14 12:50:16;;;;;;;4.13;3.73;;;;;;;6.39;100.00;101827.81;6192823;28;20228;-74
2023/12/14 12:53:37;;;;;;;6.07;5.57;;;;;;;6.34;100.00;101829.03;6178322;28;20311;-74
2023/12/14 12:56:58;;;;;;;6.07;5.10;;;;;;;6.27;100.00;101827.63;6193411;28;20229;-74
2023/12/14 13:00:19;;;;;;;4.17;3.80;;;;;;;6.28;100.00;101826.66;6192540;28;20225;-75
2023/12/14 13:03:41;;;;;;;4.00;3.03;;;;;;;6.43;100.00;101821.31;6191336;28;20236;-74
2023/12/14 13:07:04;;;;;;;6.60;4.23;;;;;;;6.54;100.00;101835.91;6197980;28;20301;-74
2023/12/14 13:10:26;;;;;;;3.37;3.00;;;;;;;6.40;100.00;101832.19;6197866;28;20233;-74
2023/12/14 13:13:48;;;;;;;6.50;4.00;;;;;;;6.52;100.00;101835.13;6197784;28;20237;-74
2023/12/14 13:17:09;;;;;;;4.73;4.43;;;;;;;6.37;100.00;101832.38;6203001;28;20264;-74
2023/12/14 13:20:31;;;;;;;4.20;3.87;;;;;;;6.39;100.00;101838.53;6201716;28;20315;-74
2023/12/14 13:23:52;;;;;;;6.10;4.67;;;;;;;6.43;100.00;101839.19;6199865;28;20311;-73
2023/12/14 13:27:13;;;;;;;3.83;3.47;;;;;;;6.42;100.00;101842.84;6203339;28;20233;-73
2023/12/14 13:30:34;;;;;;;5.10;3.33;;;;;;;6.56;100.00;101847.41;6201417;28;20233;-74
2023/12/14 13:33:55;;;;;;;3.00;2.80;;;;;;;6.35;100.00;101854.84;6191567;28;20233;-74
2023/12/14 13:37:17;;;;;;;5.93;5.20;;;;;;;6.29;100.00;101863.22;6204001;28;20241;-74
2023/12/14 13:40:38;;;;;;;3.70;3.40;;;;;;;6.27;100.00;101865.09;6192603;28;20226;-73
2023/12/14 13:43:59;;;;;;;5.73;3.53;;;;;;;6.22;100.00;101878.75;6191855;28;20323;-75
2023/12/14 13:47:20;;;;;;;4.37;3.40;;;;;;;6.23;100.00;101891.19;6204500;28;20253;-74
2023/12/14 13:50:41;;;;;;;3.73;3.40;;;;;;;6.35;100.00;101895.88;6187355;28;20229;-74
2023/12/14 13:54:03;;;;;;;3.57;2.60;;;;;;;6.34;100.00;101894.13;6207165;28;20241;-74
2023/12/14 13:57:24;;;;;;;6.63;3.77;;;;;;;6.32;100.00;101900.53;6189114;28;20241;-75
2023/12/14 14:00:45;;;;;;;3.57;3.10;;;;;;;6.28;100.00;101913.22;6209764;28;20534;-74
2023/12/14 14:04:06;;;;;;;3.80;3.27;;;;;;;6.33;100.00;101927.22;6206524;28;20255;-75
2023/12/14 14:07:27;;;;;;;4.20;3.03;;;;;;;6.20;100.00;101930.63;6199436;28;20233;-73
2023/12/14 14:10:49;;;;;;;3.43;2.87;;;;;;;6.23;100.00;101939.38;6199611;28;20263;-73
2023/12/14 14:14:10;;;;;;;3.03;2.80;;;;;;;6.14;100.00;101933.66;6203367;28;20260;-74
2023/12/14 14:17:32;;;;;;;7.53;3.20;;;;;;;6.11;100.00;101940.03;6206974;28;20229;-74
2023/12/14 14:20:53;;;;;;;3.77;3.47;;;;;;;6.05;100.00;101951.06;6204078;28;20226;-74
2023/12/14 14:24:14;;;;;;;3.40;3.10;;;;;;;6.10;100.00;101959.72;6201010;28;20233;-73
2023/12/14 14:27:37;;;;;;;5.27;3.97;;;;;;;6.12;100.00;101956.94;6202745;28;20521;-74
2023/12/14 14:30:59;;;;;;;4.37;3.10;;;;;;;6.08;100.00;101964.28;6197956;28;20229;-75
2023/12/14 14:34:19;;;;;;;4.23;2.73;;;;;;;6.10;100.00;101967.75;6198829;28;20237;-75
2023/12/14 14:37:44;;;;;;;3.80;3.40;;;;;;;6.07;100.00;101970.56;6185911;28;20279;-75
2023/12/14 14:41:05;;;;;;;4.97;4.07;;;;;;;6.01;100.00;101978.06;6202871;28;20237;-75
2023/12/14 14:44:27;;;;;;;2.77;2.47;;;;;;;5.97;100.00;101979.16;6202216;28;20294;-74
2023/12/14 14:47:48;;;;;;;4.20;3.03;;;;;;;6.31;100.00;101990.72;6194249;28;20237;-75
2023/12/14 14:51:09;;;;;;;2.87;2.67;;;;;;;6.77;100.00;101989.06;6198053;28;20233;-73
2023/12/14 14:54:30;;;;;;;6.63;3.07;;;;;;;7.13;100.00;102000.41;6197183;28;20237;-73
2023/12/14 14:57:51;;;;;;;6.87;2.83;;;;;;;7.21;100.00;102000.00;6195888;28;20229;-75
2023/12/14 15:01:13;;;;;;;6.03;3.30;;;;;;;7.22;100.00;102012.44;6190355;28;20241;-74
2023/12/14 15:04:34;;;;;;;2.90;2.70;;;;;;;6.97;100.00;102017.44;6203731;28;20257;-71
2023/12/14 15:07:59;;;;;;;6.63;4.23;;;;;;;6.99;100.00;102019.09;6197670;28;20234;-72
2023/12/14 15:11:20;;;;;;;5.97;3.77;;;;;;;7.12;100.00;102019.28;6197628;28;20225;-73
2023/12/14 15:14:41;;;;;;;13.87;11.20;;;;;;;7.28;100.00;102031.72;6203814;28;20292;-74
2023/12/14 15:18:03;;;;;;;10.97;9.87;;;;;;;6.93;100.00;102031.97;6199305;28;20233;-73
2023/12/14 15:21:25;;;;;;;6.07;4.50;;;;;;;6.85;100.00;102048.47;6200594;28;20229;-73
2023/12/14 15:24:47;;;;;;;4.77;4.23;;;;;;;6.94;100.00;102049.78;6199287;28;20735;-71
2023/12/14 15:28:07;;;;;;;2.83;2.63;;;;;;;7.01;100.00;102043.13;6205145;28;20646;-70
2023/12/14 15:31:29;;;;;;;3.10;2.67;;;;;;;7.08;100.00;102039.16;6203492;28;20237;-71
2023/12/14 15:34:52;;;;;;;4.53;4.10;;;;;;;6.94;100.00;102039.06;6202684;28;20513;-71